sensor_id;sensor_type;location;lat;lon;timestamp;P1;durP1;ratioP1;P2;durP2;ratioP2
9330;SDS011;4704;50.470;12.072;2023-12-14T00:01:19;1.88;;;1.70;;
9330;SDS011;4704;50.470;12.072;2023-12-14T00:03:47;2.72;;;1.90;;
9330;SDS011;4704;50.470;12.072;2023-12-14T00:06:14;2.58;;;2.10;;
9330;SDS011;4704;50.470;12.072;2023-12-14T00:08:41;2.10;;;1.90;;
9330;SDS011;4704;50.470;12.072;2023-12-14T00:11:09;2.40;;;1.80;;
9330;SDS011;4704;50.470;12.072;2023-12-14T00:13:38;2.63;;;2.00;;
9330;SDS011;4704;50.470;12.072;2023-12-14T00:16:06;1.85;;;1.67;;
9330;SDS011;4704;50.470;12.072;2023-12-14T00:18:34;2.10;;;1.90;;
9330;SDS011;4704;50.470;12.072;2023-12-14T00:21:01;2.08;;;1.67;;
9330;SDS011;4704;50.470;12.072;2023-12-14T00:23:29;2.05;;;1.85;;
9330;SDS011;4704;50.470;12.072;2023-12-14T00:25:56;3.33;;;1.80;;
9330;SDS011;4704;50.470;12.072;2023-12-14T00:28:23;2.20;;;1.90;;
9330;SDS011;4704;50.470;12.072;2023-12-14T00:30:52;2.47;;;1.95;;
9330;SDS011;4704;50.470;12.072;2023-12-14T00:33:19;2.10;;;1.80;;
9330;SDS011;4704;50.470;12.072;2023-12-14T00:35:47;2.50;;;1.70;;
9330;SDS011;4704;50.470;12.072;2023-12-14T00:38:15;3.78;;;1.92;;
9330;SDS011;4704;50.470;12.072;2023-12-14T00:40:42;2.25;;;1.70;;
9330;SDS011;4704;50.470;12.072;2023-12-14T00:43:10;2.58;;;1.67;;
9330;SDS011;4704;50.470;12.072;2023-12-14T00:45:37;2.15;;;1.63;;
9330;SDS011;4704;50.470;12.072;2023-12-14T00:48:07;1.90;;;1.65;;
9330;SDS011;4704;50.470;12.072;2023-12-14T00:50:35;1.92;;;1.77;;
9330;SDS011;4704;50.470;12.072;2023-12-14T00:53:02;2.17;;;1.60;;
9330;SDS011;4704;50.470;12.072;2023-12-14T00:55:30;2.03;;;1.50;;
9330;SDS011;4704;50.470;12.072;2023-12-14T00:57:57;1.75;;;1.55;;
9330;SDS011;4704;50.470;12.072;2023-12-14T01:00:24;2.00;;;1.52;;
9330;SDS011;4704;50.470;12.072;2023-12-14T01:02:52;1.92;;;1.70;;
9330;SDS011;4704;50.470;12.072;2023-12-14T01:05:21;2.25;;;1.90;;
9330;SDS011;4704;50.470;12.072;2023-12-14T01:07:48;1.88;;;1.55;;
9330;SDS011;4704;50.470;12.072;2023-12-14T01:10:15;1.67;;;1.58;;
9330;SDS011;4704;50.470;12.072;2023-12-14T01:12:43;1.92;;;1.73;;
9330;SDS011;4704;50.470;12.072;2023-12-14T01:15:10;2.05;;;1.77;;
9330;SDS011;4704;50.470;12.072;2023-12-14T01:17:38;1.98;;;1.60;;
9330;SDS011;4704;50.470;12.072;2023-12-14T01:20:06;2.30;;;1.70;;
9330;SDS011;4704;50.470;12.072;2023-12-14T01:22:35;2.00;;;1.67;;
9330;SDS011;4704;50.470;12.072;2023-12-14T01:25:02;2.22;;;1.40;;
9330;SDS011;4704;50.470;12.072;2023-12-14T01:27:29;1.73;;;1.63;;
9330;SDS011;4704;50.470;12.072;2023-12-14T01:29:57;1.70;;;1.60;;
9330;SDS011;4704;50.470;12.072;2023-12-14T01:32:24;1.80;;;1.40;;
9330;SDS011;4704;50.470;12.072;2023-12-14T01:34:52;1.73;;;1.35;;
9330;SDS011;4704;50.470;12.072;2023-12-14T01:37:19;1.90;;;1.65;;
9330;SDS011;4704;50.470;12.072;2023-12-14T01:39:48;1.75;;;1.50;;
9330;SDS011;4704;50.470;12.072;2023-12-14T01:42:15;1.77;;;1.50;;
9330;SDS011;4704;50.470;12.072;2023-12-14T01:44:43;1.90;;;1.80;;
9330;SDS011;4704;50.470;12.072;2023-12-14T01:47:10;1.85;;;1.60;;
9330;SDS011;4704;50.470;12.072;2023-12-14T01:49:38;2.00;;;1.70;;
9330;SDS011;4704;50.470;12.072;2023-12-14T01:52:06;1.92;;;1.73;;
9330;SDS011;4704;50.470;12.072;2023-12-14T01:54:33;1.80;;;1.58;;
9330;SDS011;4704;50.470;12.072;2023-12-14T01:57:02;1.67;;;1.55;;
9330;SDS011;4704;50.470;12.072;2023-12-14T01:59:30;2.00;;;1.60;;
9330;SDS011;4704;50.470;12.072;2023-12-14T02:01:58;1.60;;;1.50;;
9330;SDS011;4704;50.470;12.072;2023-12-14T02:04:27;1.50;;;1.40;;
9330;SDS011;4704;50.470;12.072;2023-12-14T02:06:55;1.80;;;1.60;;
9330;SDS011;4704;50.470;12.072;2023-12-14T02:09:23;1.70;;;1.40;;
9330;SDS011;4704;50.470;12.072;2023-12-14T02:11:50;1.63;;;1.50;;
9330;SDS011;4704;50.470;12.072;2023-12-14T02:14:21;1.60;;;1.40;;
9330;SDS011;4704;50.470;12.072;2023-12-14T02:16:49;1.58;;;1.48;;
9330;SDS011;4704;50.470;12.072;2023-12-14T02:19:16;1.70;;;1.50;;
9330;SDS011;4704;50.470;12.072;2023-12-14T02:21:43;1.60;;;1.50;;
9330;SDS011;4704;50.470;12.072;2023-12-14T02:24:12;1.55;;;1.45;;
9330;SDS011;4704;50.470;12.072;2023-12-14T02:26:40;2.00;;;1.50;;
9330;SDS011;4704;50.470;12.072;2023-12-14T02:29:07;1.45;;;1.35;;
9330;SDS011;4704;50.470;12.072;2023-12-14T02:31:34;1.30;;;1.20;;
9330;SDS011;4704;50.470;12.072;2023-12-14T02:34:01;1.50;;;1.40;;
9330;SDS011;4704;50.470;12.072;2023-12-14T02:36:29;1.45;;;1.33;;
9330;SDS011;4704;50.470;12.072;2023-12-14T02:38:56;1.50;;;1.40;;
9330;SDS011;4704;50.470;12.072;2023-12-14T02:41:25;1.65;;;1.55;;
9330;SDS011;4704;50.470;12.072;2023-12-14T02:43:52;1.85;;;1.65;;
9330;SDS011;4704;50.470;12.072;2023-12-14T02:46:20;1.50;;;1.38;;
9330;SDS011;4704;50.470;12.072;2023-12-14T02:48:47;1.90;;;1.40;;
9330;SDS011;4704;50.470;12.072;2023-12-14T02:51:14;1.67;;;1.58;;
9330;SDS011;4704;50.470;12.072;2023-12-14T02:53:42;1.50;;;1.40;;
9330;SDS011;4704;50.470;12.072;2023-12-14T02:56:10;1.42;;;1.33;;
9330;SDS011;4704;50.470;12.072;2023-12-14T02:58:38;1.30;;;1.20;;
9330;SDS011;4704;50.470;12.072;2023-12-14T03:01:06;1.55;;;1.45;;
9330;SDS011;4704;50.470;12.072;2023-12-14T03:03:32;1.70;;;1.33;;
9330;SDS011;4704;50.470;12.072;2023-12-14T03:05:59;1.42;;;1.33;;
9330;SDS011;4704;50.470;12.072;2023-12-14T03:08:27;1.50;;;1.33;;
9330;SDS011;4704;50.470;12.072;2023-12-14T03:10:54;1.70;;;1.50;;
9330;SDS011;4704;50.470;12.072;2023-12-14T03:13:22;1.13;;;1.05;;
9330;SDS011;4704;50.470;12.072;2023-12-14T03:15:51;1.38;;;1.17;;
9330;SDS011;4704;50.470;12.072;2023-12-14T03:18:18;1.40;;;1.23;;
9330;SDS011;4704;50.470;12.072;2023-12-14T03:20:46;1.30;;;1.20;;
9330;SDS011;4704;50.470;12.072;2023-12-14T03:23:13;1.50;;;1.40;;
9330;SDS011;4704;50.470;12.072;2023-12-14T03:25:41;1.45;;;1.35;;
9330;SDS011;4704;50.470;12.072;2023-12-14T03:28:08;1.33;;;1.23;;
9330;SDS011;4704;50.470;12.072;2023-12-14T03:30:35;1.50;;;1.40;;
9330;SDS011;4704;50.470;12.072;2023-12-14T03:33:04;1.55;;;1.45;;
9330;SDS011;4704;50.470;12.072;2023-12-14T03:35:33;1.30;;;1.20;;
9330;SDS011;4704;50.470;12.072;2023-12-14T03:38:01;1.50;;;1.40;;
9330;SDS011;4704;50.470;12.072;2023-12-14T03:40:28;1.35;;;1.25;;
9330;SDS011;4704;50.470;12.072;2023-12-14T03:42:55;1.48;;;1.30;;
9330;SDS011;4704;50.470;12.072;2023-12-14T03:45:23;1.60;;;1.50;;
9330;SDS011;4704;50.470;12.072;2023-12-14T03:47:50;1.55;;;1.45;;
9330;SDS011;4704;50.470;12.072;2023-12-14T03:50:19;1.77;;;1.40;;
9330;SDS011;4704;50.470;12.072;2023-12-14T03:52:47;1.30;;;1.20;;
9330;SDS011;4704;50.470;12.072;2023-12-14T03:55:14;1.50;;;1.40;;
9330;SDS011;4704;50.470;12.072;2023-12-14T03:57:41;1.35;;;1.25;;
9330;SDS011;4704;50.470;12.072;2023-12-14T04:00:09;1.50;;;1.40;;
9330;SDS011;4704;50.470;12.072;2023-12-14T04:02:38;1.50;;;1.40;;
9330;SDS011;4704;50.470;12.072;2023-12-14T04:05:06;1.30;;;1.20;;
9330;SDS011;4704;50.470;12.072;2023-12-14T04:07:35;1.13;;;1.02;;
9330;SDS011;4704;50.470;12.072;2023-12-14T04:10:05;1.25;;;1.13;;
9330;SDS011;4704;50.470;12.072;2023-12-14T04:12:33;1.40;;;1.30;;
9330;SDS011;4704;50.470;12.072;2023-12-14T04:15:00;1.25;;;1.15;;
9330;SDS011;4704;50.470;12.072;2023-12-14T04:17:29;1.45;;;1.35;;
9330;SDS011;4704;50.470;12.072;2023-12-14T04:19:57;1.33;;;1.23;;
9330;SDS011;4704;50.470;12.072;2023-12-14T04:22:24;1.10;;;1.00;;
9330;SDS011;4704;50.470;12.072;2023-12-14T04:24:53;1.30;;;1.15;;
9330;SDS011;4704;50.470;12.072;2023-12-14T04:27:20;1.25;;;1.15;;
9330;SDS011;4704;50.470;12.072;2023-12-14T04:29:52;1.45;;;1.35;;
9330;SDS011;4704;50.470;12.072;2023-12-14T04:32:19;1.40;;;1.30;;
9330;SDS011;4704;50.470;12.072;2023-12-14T04:34:47;1.50;;;1.40;;
9330;SDS011;4704;50.470;12.072;2023-12-14T04:37:14;1.40;;;1.30;;
9330;SDS011;4704;50.470;12.072;2023-12-14T04:39:42;1.35;;;1.23;;
9330;SDS011;4704;50.470;12.072;2023-12-14T04:42:11;1.13;;;1.00;;
9330;SDS011;4704;50.470;12.072;2023-12-14T04:44:38;1.30;;;1.20;;
9330;SDS011;4704;50.470;12.072;2023-12-14T04:47:05;1.40;;;1.25;;
9330;SDS011;4704;50.470;12.072;2023-12-14T04:49:33;1.50;;;1.40;;
9330;SDS011;4704;50.470;12.072;2023-12-14T04:52:00;1.30;;;1.20;;
9330;SDS011;4704;50.470;12.072;2023-12-14T04:54:28;1.40;;;1.30;;
9330;SDS011;4704;50.470;12.072;2023-12-14T04:56:55;1.27;;;1.17;;
9330;SDS011;4704;50.470;12.072;2023-12-14T04:59:24;1.45;;;1.35;;
9330;SDS011;4704;50.470;12.072;2023-12-14T05:01:51;1.60;;;1.50;;
9330;SDS011;4704;50.470;12.072;2023-12-14T05:04:19;2.17;;;1.40;;
9330;SDS011;4704;50.470;12.072;2023-12-14T05:06:46;1.65;;;1.27;;
9330;SDS011;4704;50.470;12.072;2023-12-14T05:09:14;1.23;;;1.13;;
9330;SDS011;4704;50.470;12.072;2023-12-14T05:11:41;1.35;;;1.25;;
9330;SDS011;4704;50.470;12.072;2023-12-14T05:14:09;1.20;;;1.10;;
9330;SDS011;4704;50.470;12.072;2023-12-14T05:16:37;1.40;;;1.30;;
9330;SDS011;4704;50.470;12.072;2023-12-14T05:19:05;1.42;;;1.33;;
9330;SDS011;4704;50.470;12.072;2023-12-14T05:21:32;1.25;;;1.15;;
9330;SDS011;4704;50.470;12.072;2023-12-14T05:24:00;1.27;;;1.17;;
9330;SDS011;4704;50.470;12.072;2023-12-14T05:26:28;1.30;;;1.20;;
9330;SDS011;4704;50.470;12.072;2023-12-14T05:28:55;1.20;;;1.10;;
9330;SDS011;4704;50.470;12.072;2023-12-14T05:31:22;1.45;;;1.35;;
9330;SDS011;4704;50.470;12.072;2023-12-14T05:33:51;1.33;;;1.23;;
9330;SDS011;4704;50.470;12.072;2023-12-14T05:36:18;1.15;;;1.00;;
9330;SDS011;4704;50.470;12.072;2023-12-14T05:38:46;1.30;;;1.20;;
9330;SDS011;4704;50.470;12.072;2023-12-14T05:41:14;1.23;;;1.13;;
9330;SDS011;4704;50.470;12.072;2023-12-14T05:43:41;1.27;;;1.10;;
9330;SDS011;4704;50.470;12.072;2023-12-14T05:46:08;1.70;;;1.20;;
9330;SDS011;4704;50.470;12.072;2023-12-14T05:48:37;1.13;;;1.02;;
9330;SDS011;4704;50.470;12.072;2023-12-14T05:51:06;1.00;;;0.90;;
9330;SDS011;4704;50.470;12.072;2023-12-14T05:53:33;1.17;;;1.08;;
9330;SDS011;4704;50.470;12.072;2023-12-14T05:56:05;1.20;;;1.10;;
9330;SDS011;4704;50.470;12.072;2023-12-14T05:58:32;1.08;;;1.00;;
9330;SDS011;4704;50.470;12.072;2023-12-14T06:01:00;1.10;;;1.00;;
9330;SDS011;4704;50.470;12.072;2023-12-14T06:03:27;1.85;;;1.10;;
9330;SDS011;4704;50.470;12.072;2023-12-14T06:05:56;1.23;;;1.13;;
9330;SDS011;4704;50.470;12.072;2023-12-14T06:08:25;1.23;;;1.13;;
9330;SDS011;4704;50.470;12.072;2023-12-14T06:10:52;1.10;;;1.00;;
9330;SDS011;4704;50.470;12.072;2023-12-14T06:13:20;1.02;;;0.93;;
9330;SDS011;4704;50.470;12.072;2023-12-14T06:15:47;1.20;;;1.10;;
9330;SDS011;4704;50.470;12.072;2023-12-14T06:18:15;1.00;;;1.00;;
9330;SDS011;4704;50.470;12.072;2023-12-14T06:20:42;1.05;;;1.00;;
9330;SDS011;4704;50.470;12.072;2023-12-14T06:23:10;1.00;;;0.90;;
9330;SDS011;4704;50.470;12.072;2023-12-14T06:25:38;1.20;;;1.10;;
9330;SDS011;4704;50.470;12.072;2023-12-14T06:28:06;1.33;;;0.80;;
9330;SDS011;4704;50.470;12.072;2023-12-14T06:30:33;1.20;;;1.10;;
9330;SDS011;4704;50.470;12.072;2023-12-14T06:33:01;1.10;;;1.00;;
9330;SDS011;4704;50.470;12.072;2023-12-14T06:35:28;1.35;;;1.10;;
9330;SDS011;4704;50.470;12.072;2023-12-14T06:37:55;1.10;;;1.00;;
9330;SDS011;4704;50.470;12.072;2023-12-14T06:40:23;1.13;;;1.02;;
9330;SDS011;4704;50.470;12.072;2023-12-14T06:42:51;1.02;;;0.95;;
9330;SDS011;4704;50.470;12.072;2023-12-14T06:45:19;0.90;;;0.90;;
9330;SDS011;4704;50.470;12.072;2023-12-14T06:47:46;1.75;;;1.10;;
9330;SDS011;4704;50.470;12.072;2023-12-14T06:50:15;1.10;;;1.00;;
9330;SDS011;4704;50.470;12.072;2023-12-14T06:52:42;0.93;;;0.90;;
9330;SDS011;4704;50.470;12.072;2023-12-14T06:55:10;1.27;;;1.00;;
9330;SDS011;4704;50.470;12.072;2023-12-14T06:57:39;0.93;;;0.90;;
9330;SDS011;4704;50.470;12.072;2023-12-14T07:00:09;1.10;;;1.00;;
9330;SDS011;4704;50.470;12.072;2023-12-14T07:02:36;1.25;;;1.05;;
9330;SDS011;4704;50.470;12.072;2023-12-14T07:05:04;1.50;;;1.00;;
9330;SDS011;4704;50.470;12.072;2023-12-14T07:07:31;1.05;;;1.05;;
9330;SDS011;4704;50.470;12.072;2023-12-14T07:09:59;1.00;;;1.00;;
9330;SDS011;4704;50.470;12.072;2023-12-14T07:12:26;2.00;;;1.00;;
9330;SDS011;4704;50.470;12.072;2023-12-14T07:14:54;1.50;;;1.08;;
9330;SDS011;4704;50.470;12.072;2023-12-14T07:17:22;1.23;;;0.95;;
9330;SDS011;4704;50.470;12.072;2023-12-14T07:19:50;1.05;;;0.93;;
9330;SDS011;4704;50.470;12.072;2023-12-14T07:22:18;1.35;;;1.05;;
9330;SDS011;4704;50.470;12.072;2023-12-14T07:24:46;1.10;;;1.00;;
9330;SDS011;4704;50.470;12.072;2023-12-14T07:27:13;1.00;;;0.90;;
9330;SDS011;4704;50.470;12.072;2023-12-14T07:29:41;1.20;;;1.08;;
9330;SDS011;4704;50.470;12.072;2023-12-14T07:32:08;1.05;;;0.95;;
9330;SDS011;4704;50.470;12.072;2023-12-14T07:34:37;1.27;;;0.95;;
9330;SDS011;4704;50.470;12.072;2023-12-14T07:37:04;1.10;;;1.00;;
9330;SDS011;4704;50.470;12.072;2023-12-14T07:39:32;1.38;;;1.27;;
9330;SDS011;4704;50.470;12.072;2023-12-14T07:41:59;1.27;;;1.10;;
9330;SDS011;4704;50.470;12.072;2023-12-14T07:44:27;1.50;;;1.00;;
9330;SDS011;4704;50.470;12.072;2023-12-14T07:46:55;1.20;;;1.10;;
9330;SDS011;4704;50.470;12.072;2023-12-14T07:49:22;1.10;;;1.00;;
9330;SDS011;4704;50.470;12.072;2023-12-14T07:51:51;1.58;;;1.00;;
9330;SDS011;4704;50.470;12.072;2023-12-14T07:54:19;1.10;;;1.00;;
9330;SDS011;4704;50.470;12.072;2023-12-14T07:56:46;2.85;;;1.10;;
9330;SDS011;4704;50.470;12.072;2023-12-14T07:59:13;1.02;;;0.93;;
9330;SDS011;4704;50.470;12.072;2023-12-14T08:01:41;1.20;;;1.10;;
9330;SDS011;4704;50.470;12.072;2023-12-14T08:04:08;1.40;;;1.20;;
9330;SDS011;4704;50.470;12.072;2023-12-14T08:06:36;2.35;;;1.00;;
9330;SDS011;4704;50.470;12.072;2023-12-14T08:09:06;2.53;;;1.00;;
9330;SDS011;4704;50.470;12.072;2023-12-14T08:11:33;1.15;;;1.02;;
9330;SDS011;4704;50.470;12.072;2023-12-14T08:14:01;1.63;;;0.95;;
9330;SDS011;4704;50.470;12.072;2023-12-14T08:16:29;1.70;;;1.02;;
9330;SDS011;4704;50.470;12.072;2023-12-14T08:18:56;1.33;;;1.20;;
9330;SDS011;4704;50.470;12.072;2023-12-14T08:21:23;1.20;;;1.02;;
9330;SDS011;4704;50.470;12.072;2023-12-14T08:23:51;1.38;;;1.00;;
9330;SDS011;4704;50.470;12.072;2023-12-14T08:26:20;1.27;;;1.00;;
9330;SDS011;4704;50.470;12.072;2023-12-14T08:28:47;1.00;;;0.90;;
9330;SDS011;4704;50.470;12.072;2023-12-14T08:31:14;1.95;;;1.05;;
9330;SDS011;4704;50.470;12.072;2023-12-14T08:33:42;1.25;;;0.90;;
9330;SDS011;4704;50.470;12.072;2023-12-14T08:36:10;1.00;;;0.90;;
9330;SDS011;4704;50.470;12.072;2023-12-14T08:38:37;1.10;;;1.00;;
9330;SDS011;4704;50.470;12.072;2023-12-14T08:41:04;1.13;;;1.02;;
9330;SDS011;4704;50.470;12.072;2023-12-14T08:43:33;1.17;;;1.08;;
9330;SDS011;4704;50.470;12.072;2023-12-14T08:46:00;1.10;;;1.00;;
9330;SDS011;4704;50.470;12.072;2023-12-14T08:48:28;1.55;;;1.00;;
9330;SDS011;4704;50.470;12.072;2023-12-14T08:50:55;1.30;;;1.00;;
9330;SDS011;4704;50.470;12.072;2023-12-14T08:53:23;1.35;;;1.02;;
9330;SDS011;4704;50.470;12.072;2023-12-14T08:55:51;1.20;;;1.00;;
9330;SDS011;4704;50.470;12.072;2023-12-14T08:58:18;1.35;;;1.08;;
9330;SDS011;4704;50.470;12.072;2023-12-14T09:00:47;1.10;;;1.00;;
9330;SDS011;4704;50.470;12.072;2023-12-14T09:03:18;1.27;;;0.90;;
9330;SDS011;4704;50.470;12.072;2023-12-14T09:05:46;1.00;;;0.90;;
9330;SDS011;4704;50.470;12.072;2023-12-14T09:08:13;1.80;;;0.98;;
9330;SDS011;4704;50.470;12.072;2023-12-14T09:10:40;1.13;;;1.00;;
9330;SDS011;4704;50.470;12.072;2023-12-14T09:59:27;2.55;;;1.05;;
9330;SDS011;4704;50.470;12.072;2023-12-14T10:01:57;2.72;;;1.25;;
9330;SDS011;4704;50.470;12.072;2023-12-14T10:04:35;4.32;;;1.30;;
9330;SDS011;4704;50.470;12.072;2023-12-14T10:07:03;4.00;;;1.13;;
9330;SDS011;4704;50.470;12.072;2023-12-14T10:09:32;1.27;;;1.10;;
9330;SDS011;4704;50.470;12.072;2023-12-14T10:12:02;3.42;;;1.20;;
9330;SDS011;4704;50.470;12.072;2023-12-14T10:14:32;2.38;;;1.20;;
9330;SDS011;4704;50.470;12.072;2023-12-14T10:16:59;2.20;;;1.10;;
9330;SDS011;4704;50.470;12.072;2023-12-14T10:19:41;2.05;;;1.35;;
9330;SDS011;4704;50.470;12.072;2023-12-14T10:22:09;1.90;;;1.30;;
9330;SDS011;4704;50.470;12.072;2023-12-14T10:24:36;1.92;;;1.27;;
9330;SDS011;4704;50.470;12.072;2023-12-14T10:27:05;2.70;;;1.00;;
9330;SDS011;4704;50.470;12.072;2023-12-14T10:29:35;2.28;;;1.20;;
9330;SDS011;4704;50.470;12.072;2023-12-14T10:32:04;3.03;;;1.48;;
9330;SDS011;4704;50.470;12.072;2023-12-14T10:34:34;1.98;;;1.10;;
9330;SDS011;4704;50.470;12.072;2023-12-14T10:37:01;2.92;;;1.27;;
9330;SDS011;4704;50.470;12.072;2023-12-14T10:39:31;3.58;;;1.38;;
9330;SDS011;4704;50.470;12.072;2023-12-14T10:42:01;2.10;;;1.20;;
9330;SDS011;4704;50.470;12.072;2023-12-14T10:44:30;2.60;;;1.42;;
9330;SDS011;4704;50.470;12.072;2023-12-14T10:46:58;1.92;;;1.23;;
9330;SDS011;4704;50.470;12.072;2023-12-14T10:49:26;2.55;;;1.30;;
9330;SDS011;4704;50.470;12.072;2023-12-14T10:51:54;2.33;;;1.40;;
9330;SDS011;4704;50.470;12.072;2023-12-14T10:54:23;2.60;;;1.20;;
9330;SDS011;4704;50.470;12.072;2023-12-14T10:56:54;1.98;;;1.08;;
9330;SDS011;4704;50.470;12.072;2023-12-14T10:59:21;2.17;;;1.40;;
9330;SDS011;4704;50.470;12.072;2023-12-14T11:01:51;3.03;;;1.20;;
9330;SDS011;4704;50.470;12.072;2023-12-14T11:04:22;1.70;;;1.30;;
9330;SDS011;4704;50.470;12.072;2023-12-14T11:06:49;2.90;;;1.27;;
9330;SDS011;4704;50.470;12.072;2023-12-14T11:09:17;2.10;;;1.33;;
9330;SDS011;4704;50.470;12.072;2023-12-14T11:11:47;1.67;;;1.38;;
9330;SDS011;4704;50.470;12.072;2023-12-14T11:14:22;1.77;;;1.13;;
9330;SDS011;4704;50.470;12.072;2023-12-14T11:16:51;1.58;;;1.13;;
9330;SDS011;4704;50.470;12.072;2023-12-14T11:19:29;1.48;;;1.38;;
9330;SDS011;4704;50.470;12.072;2023-12-14T11:22:08;1.38;;;1.10;;
9330;SDS011;4704;50.470;12.072;2023-12-14T11:24:36;2.80;;;1.33;;
9330;SDS011;4704;50.470;12.072;2023-12-14T11:27:03;1.38;;;1.20;;
9330;SDS011;4704;50.470;12.072;2023-12-14T11:29:31;1.30;;;1.20;;
9330;SDS011;4704;50.470;12.072;2023-12-14T11:31:58;1.58;;;1.17;;
9330;SDS011;4704;50.470;12.072;2023-12-14T11:34:25;1.58;;;1.10;;
9330;SDS011;4704;50.470;12.072;2023-12-14T11:36:54;1.63;;;1.35;;
9330;SDS011;4704;50.470;12.072;2023-12-14T11:39:22;2.15;;;1.40;;
9330;SDS011;4704;50.470;12.072;2023-12-14T11:41:58;1.15;;;1.05;;
9330;SDS011;4704;50.470;12.072;2023-12-14T11:44:25;1.77;;;1.30;;
9330;SDS011;4704;50.470;12.072;2023-12-14T11:46:52;2.00;;;1.27;;
9330;SDS011;4704;50.470;12.072;2023-12-14T11:49:20;2.08;;;1.58;;
9330;SDS011;4704;50.470;12.072;2023-12-14T11:51:47;2.15;;;1.25;;
9330;SDS011;4704;50.470;12.072;2023-12-14T11:54:19;1.50;;;1.30;;
9330;SDS011;4704;50.470;12.072;2023-12-14T11:56:47;1.52;;;1.40;;
9330;SDS011;4704;50.470;12.072;2023-12-14T11:59:14;1.52;;;1.10;;
9330;SDS011;4704;50.470;12.072;2023-12-14T12:04:25;1.48;;;1.20;;
9330;SDS011;4704;50.470;12.072;2023-12-14T12:06:59;1.35;;;1.17;;
9330;SDS011;4704;50.470;12.072;2023-12-14T12:09:35;1.55;;;1.25;;
9330;SDS011;4704;50.470;12.072;2023-12-14T12:12:06;2.15;;;1.10;;
9330;SDS011;4704;50.470;12.072;2023-12-14T12:14:33;1.42;;;1.33;;
9330;SDS011;4704;50.470;12.072;2023-12-14T12:17:01;1.85;;;1.42;;
9330;SDS011;4704;50.470;12.072;2023-12-14T12:19:29;1.60;;;1.50;;
9330;SDS011;4704;50.470;12.072;2023-12-14T12:21:56;2.25;;;1.05;;
9330;SDS011;4704;50.470;12.072;2023-12-14T12:24:24;2.00;;;1.42;;
9330;SDS011;4704;50.470;12.072;2023-12-14T12:26:53;1.48;;;1.27;;
9330;SDS011;4704;50.470;12.072;2023-12-14T12:29:20;1.60;;;1.50;;
9330;SDS011;4704;50.470;12.072;2023-12-14T12:31:48;2.05;;;1.42;;
9330;SDS011;4704;50.470;12.072;2023-12-14T12:34:16;1.42;;;1.23;;
9330;SDS011;4704;50.470;12.072;2023-12-14T12:36:46;2.55;;;1.20;;
9330;SDS011;4704;50.470;12.072;2023-12-14T12:39:17;2.00;;;1.25;;
9330;SDS011;4704;50.470;12.072;2023-12-14T12:41:44;3.15;;;1.40;;
9330;SDS011;4704;50.470;12.072;2023-12-14T12:44:13;1.27;;;1.08;;
9330;SDS011;4704;50.470;12.072;2023-12-14T12:46:40;1.50;;;1.20;;
9330;SDS011;4704;50.470;12.072;2023-12-14T12:49:07;1.42;;;1.25;;
9330;SDS011;4704;50.470;12.072;2023-12-14T12:51:35;1.65;;;1.27;;
9330;SDS011;4704;50.470;12.072;2023-12-14T12:54:03;1.15;;;1.05;;
9330;SDS011;4704;50.470;12.072;2023-12-14T12:56:30;2.05;;;1.08;;
9330;SDS011;4704;50.470;12.072;2023-12-14T12:58:57;1.25;;;1.10;;
9330;SDS011;4704;50.470;12.072;2023-12-14T13:01:26;1.20;;;1.10;;
9330;SDS011;4704;50.470;12.072;2023-12-14T13:03:53;1.00;;;0.90;;
9330;SDS011;4704;50.470;12.072;2023-12-14T13:06:23;1.25;;;0.98;;
9330;SDS011;4704;50.470;12.072;2023-12-14T13:08:51;2.20;;;1.27;;
9330;SDS011;4704;50.470;12.072;2023-12-14T13:11:18;1.30;;;1.20;;
9330;SDS011;4704;50.470;12.072;2023-12-14T13:13:45;1.30;;;1.20;;
9330;SDS011;4704;50.470;12.072;2023-12-14T13:16:12;1.75;;;1.05;;
9330;SDS011;4704;50.470;12.072;2023-12-14T13:18:43;1.08;;;0.93;;
9330;SDS011;4704;50.470;12.072;2023-12-14T13:21:11;1.48;;;0.90;;
9330;SDS011;4704;50.470;12.072;2023-12-14T13:23:38;1.27;;;1.02;;
9330;SDS011;4704;50.470;12.072;2023-12-14T13:26:06;1.10;;;1.00;;
9330;SDS011;4704;50.470;12.072;2023-12-14T13:28:34;1.30;;;1.10;;
9330;SDS011;4704;50.470;12.072;2023-12-14T13:31:01;1.17;;;1.02;;
9330;SDS011;4704;50.470;12.072;2023-12-14T13:33:28;1.05;;;0.95;;
9330;SDS011;4704;50.470;12.072;2023-12-14T13:35:57;1.20;;;1.00;;
9330;SDS011;4704;50.470;12.072;2023-12-14T13:38:24;1.23;;;1.00;;
9330;SDS011;4704;50.470;12.072;2023-12-14T13:40:52;1.35;;;1.10;;
9330;SDS011;4704;50.470;12.072;2023-12-14T13:43:19;1.48;;;1.30;;
9330;SDS011;4704;50.470;12.072;2023-12-14T13:45:47;1.10;;;1.00;;
9330;SDS011;4704;50.470;12.072;2023-12-14T13:48:18;1.33;;;1.00;;
9330;SDS011;4704;50.470;12.072;2023-12-14T13:50:45;1.40;;;1.10;;
9330;SDS011;4704;50.470;12.072;2023-12-14T13:53:14;1.45;;;1.00;;
9330;SDS011;4704;50.470;12.072;2023-12-14T13:55:41;1.20;;;1.10;;
9330;SDS011;4704;50.470;12.072;2023-12-14T13:58:09;1.20;;;1.10;;
9330;SDS011;4704;50.470;12.072;2023-12-14T14:00:36;1.30;;;1.20;;
9330;SDS011;4704;50.470;12.072;2023-12-14T14:03:04;1.23;;;0.90;;
9330;SDS011;4704;50.470;12.072;2023-12-14T14:05:31;1.10;;;1.00;;
9330;SDS011;4704;50.470;12.072;2023-12-14T14:07:59;1.20;;;1.10;;
9330;SDS011;4704;50.470;12.072;2023-12-14T14:10:28;0.80;;;0.80;;
9330;SDS011;4704;50.470;12.072;2023-12-14T14:12:55;1.25;;;0.90;;
9330;SDS011;4704;50.470;12.072;2023-12-14T14:15:23;1.08;;;0.98;;
9330;SDS011;4704;50.470;12.072;2023-12-14T14:17:50;1.00;;;1.00;;
9330;SDS011;4704;50.470;12.072;2023-12-14T14:20:19;1.67;;;1.05;;
9330;SDS011;4704;50.470;12.072;2023-12-14T14:22:47;0.98;;;0.88;;
9330;SDS011;4704;50.470;12.072;2023-12-14T14:25:14;0.80;;;0.68;;
9330;SDS011;4704;50.470;12.072;2023-12-14T14:27:44;1.23;;;1.10;;
9330;SDS011;4704;50.470;12.072;2023-12-14T14:30:13;1.10;;;1.00;;
9330;SDS011;4704;50.470;12.072;2023-12-14T14:32:41;0.90;;;0.90;;
9330;SDS011;4704;50.470;12.072;2023-12-14T14:35:08;1.20;;;1.10;;
9330;SDS011;4704;50.470;12.072;2023-12-14T14:37:35;1.02;;;0.90;;
9330;SDS011;4704;50.470;12.072;2023-12-14T14:40:03;1.00;;;0.90;;
9330;SDS011;4704;50.470;12.072;2023-12-14T14:42:31;1.00;;;1.00;;
9330;SDS011;4704;50.470;12.072;2023-12-14T14:45:00;0.88;;;0.70;;
9330;SDS011;4704;50.470;12.072;2023-12-14T14:47:27;0.95;;;0.90;;
9330;SDS011;4704;50.470;12.072;2023-12-14T14:49:55;1.10;;;1.00;;
9330;SDS011;4704;50.470;12.072;2023-12-14T14:52:28;0.95;;;0.73;;
9330;SDS011;4704;50.470;12.072;2023-12-14T14:54:56;1.10;;;1.00;;
9330;SDS011;4704;50.470;12.072;2023-12-14T14:57:23;0.80;;;0.73;;
9330;SDS011;4704;50.470;12.072;2023-12-14T14:59:50;0.70;;;0.70;;
9330;SDS011;4704;50.470;12.072;2023-12-14T15:02:20;1.10;;;1.00;;
9330;SDS011;4704;50.470;12.072;2023-12-14T15:04:47;0.82;;;0.82;;
9330;SDS011;4704;50.470;12.072;2023-12-14T15:07:15;1.00;;;0.90;;
9330;SDS011;4704;50.470;12.072;2023-12-14T15:09:42;0.90;;;0.90;;
9330;SDS011;4704;50.470;12.072;2023-12-14T15:12:09;0.80;;;0.77;;
9330;SDS011;4704;50.470;12.072;2023-12-14T15:14:37;0.80;;;0.80;;
9330;SDS011;4704;50.470;12.072;2023-12-14T15:17:04;0.98;;;0.80;;
9330;SDS011;4704;50.470;12.072;2023-12-14T15:19:33;1.17;;;0.80;;
9330;SDS011;4704;50.470;12.072;2023-12-14T15:22:00;0.68;;;0.65;;
9330;SDS011;4704;50.470;12.072;2023-12-14T15:24:28;0.73;;;0.73;;
9330;SDS011;4704;50.470;12.072;2023-12-14T15:26:55;0.90;;;0.90;;
9330;SDS011;4704;50.470;12.072;2023-12-14T15:29:23;0.60;;;0.60;;
9330;SDS011;4704;50.470;12.072;2023-12-14T15:31:50;0.95;;;0.90;;
9330;SDS011;4704;50.470;12.072;2023-12-14T15:34:18;0.85;;;0.85;;
9330;SDS011;4704;50.470;12.072;2023-12-14T15:36:47;0.80;;;0.80;;
9330;SDS011;4704;50.470;12.072;2023-12-14T15:39:15;0.80;;;0.80;;
9330;SDS011;4704;50.470;12.072;2023-12-14T15:41:44;0.77;;;0.77;;
9330;SDS011;4704;50.470;12.072;2023-12-14T15:44:11;0.60;;;0.60;;
9330;SDS011;4704;50.470;12.072;2023-12-14T15:46:38;0.80;;;0.70;;
9330;SDS011;4704;50.470;12.072;2023-12-14T15:49:06;0.70;;;0.70;;
9330;SDS011;4704;50.470;12.072;2023-12-14T15:51:33;0.93;;;0.80;;
9330;SDS011;4704;50.470;12.072;2023-12-14T15:54:03;0.75;;;0.70;;